createdAt,value
2023-11-23T00:00:54.963Z,7.52
2023-11-23T00:03:23.024Z,7.50
2023-11-23T00:05:51.104Z,7.54
2023-11-23T00:08:21.102Z,7.66
2023-11-23T00:10:53.494Z,7.70
2023-11-23T00:13:21.509Z,7.75
2023-11-23T00:15:49.484Z,7.79
2023-11-23T00:18:17.518Z,7.79
2023-11-23T00:20:46.476Z,7.77
2023-11-23T00:23:14.536Z,7.72
2023-11-23T00:25:42.484Z,7.68
2023-11-23T00:28:11.856Z,7.81
2023-11-23T00:30:39.791Z,7.93
2023-11-23T00:33:07.887Z,7.92
2023-11-23T00:35:35.979Z,7.92
2023-11-23T00:38:04.884Z,7.85
2023-11-23T00:40:32.965Z,7.87
2023-11-23T00:43:00.979Z,7.91
2023-11-23T00:45:30.626Z,7.97
2023-11-23T00:47:58.856Z,8.06
2023-11-23T00:50:26.891Z,8.05
2023-11-23T00:52:54.892Z,8.18
2023-11-23T00:55:23.035Z,8.30
2023-11-23T00:57:51.070Z,8.35
2023-11-23T01:00:21.521Z,8.40
2023-11-23T01:02:52.377Z,8.36
2023-11-23T01:05:20.740Z,8.51
2023-11-23T01:07:48.710Z,8.48
2023-11-23T01:10:17.134Z,8.47
2023-11-23T01:12:45.126Z,8.50
2023-11-23T01:15:13.704Z,8.61
2023-11-23T01:17:41.955Z,8.78
2023-11-23T01:20:12.593Z,8.79
2023-11-23T01:22:40.705Z,8.84
2023-11-23T01:25:10.191Z,8.64
2023-11-23T01:27:38.551Z,8.65
2023-11-23T01:30:07.741Z,8.85
2023-11-23T01:32:35.851Z,8.81
2023-11-23T01:35:04.396Z,8.88
2023-11-23T01:37:36.950Z,8.96
2023-11-23T01:40:05.762Z,8.91
2023-11-23T01:42:33.762Z,8.84
2023-11-23T01:45:01.888Z,8.97
2023-11-23T01:47:32.147Z,9.00
2023-11-23T01:50:04.511Z,8.95
2023-11-23T01:52:34.259Z,8.95
2023-11-23T01:55:03.201Z,9.00
2023-11-23T01:57:40.535Z,9.09
2023-11-23T02:00:10.588Z,9.12
2023-11-23T02:02:38.804Z,8.94
2023-11-23T02:05:07.509Z,9.04
2023-11-23T02:07:38.312Z,9.06
2023-11-23T02:10:08.204Z,9.14
2023-11-23T02:12:36.742Z,9.14
2023-11-23T02:15:05.566Z,9.19
2023-11-23T02:17:33.789Z,9.16
2023-11-23T02:20:01.794Z,9.26
2023-11-23T02:22:29.747Z,9.12
2023-11-23T02:24:59.147Z,9.18
2023-11-23T02:27:27.128Z,9.37
2023-11-23T02:29:55.253Z,9.30
2023-11-23T02:32:26.905Z,9.27
2023-11-23T02:34:54.919Z,9.32
2023-11-23T02:37:22.959Z,9.40
2023-11-23T02:39:51.622Z,9.54
2023-11-23T02:42:21.110Z,9.64
2023-11-23T02:44:49.218Z,9.61
2023-11-23T02:47:17.311Z,9.63
2023-11-23T02:49:45.301Z,9.64
2023-11-23T02:52:13.859Z,9.55
2023-11-23T02:54:41.885Z,9.67
2023-11-23T02:57:09.934Z,9.77
2023-11-23T02:59:39.338Z,9.64
2023-11-23T03:02:07.507Z,9.64
2023-11-23T03:04:35.585Z,9.78
2023-11-23T03:07:03.546Z,9.89
2023-11-23T03:09:31.529Z,9.85
2023-11-23T03:11:59.530Z,9.77
2023-11-23T03:14:27.797Z,9.92
2023-11-23T03:16:58.227Z,9.96
2023-11-23T03:19:26.224Z,10.00
2023-11-23T03:21:54.235Z,9.99
2023-11-23T03:24:22.459Z,9.84
2023-11-23T03:26:50.466Z,9.96
2023-11-23T03:29:18.434Z,10.01
2023-11-23T03:31:46.501Z,10.02
2023-11-23T03:34:15.983Z,10.04
2023-11-23T03:36:44.489Z,9.99
2023-11-23T03:39:13.617Z,10.02
2023-11-23T03:41:41.703Z,10.10
2023-11-23T03:44:09.688Z,10.11
2023-11-23T03:46:37.684Z,10.09
2023-11-23T03:49:06.159Z,10.07
2023-11-23T03:51:35.554Z,10.18
2023-11-23T03:54:04.017Z,10.21
2023-11-23T03:56:32.061Z,10.12
2023-11-23T03:59:00.110Z,10.24
2023-11-23T04:01:28.171Z,10.24
2023-11-23T04:03:56.199Z,10.18
2023-11-23T04:06:24.769Z,10.26
2023-11-23T04:08:54.191Z,10.30
2023-11-23T04:11:23.076Z,10.13
2023-11-23T04:13:51.026Z,10.21
2023-11-23T04:16:19.053Z,10.18
2023-11-23T04:18:47.480Z,10.26
2023-11-23T04:21:15.721Z,10.31
2023-11-23T04:23:43.825Z,10.34
2023-11-23T04:26:13.210Z,10.31
2023-11-23T04:28:42.005Z,10.34
2023-11-23T04:31:10.074Z,10.35
2023-11-23T04:33:41.620Z,10.43
2023-11-23T04:36:12.631Z,10.45
2023-11-23T04:38:40.828Z,10.47
2023-11-23T04:41:08.787Z,10.45
2023-11-23T04:43:38.327Z,10.53
2023-11-23T04:46:07.131Z,10.54
2023-11-23T04:48:35.169Z,10.50
2023-11-23T04:51:03.265Z,10.60
2023-11-23T04:53:31.200Z,10.74
2023-11-23T04:55:59.788Z,10.77
2023-11-23T04:58:28.573Z,10.73
2023-11-23T05:00:57.984Z,10.73
2023-11-23T05:03:26.061Z,10.77
2023-11-23T05:05:54.151Z,10.83
2023-11-23T05:08:22.139Z,10.83
2023-11-23T05:10:50.150Z,10.85
2023-11-23T05:13:18.238Z,10.88
2023-11-23T05:15:46.204Z,10.84
2023-11-23T05:18:16.108Z,10.92
2023-11-23T05:20:44.184Z,10.89
2023-11-23T05:23:12.128Z,11.03
2023-11-23T05:25:40.194Z,10.99
2023-11-23T05:28:08.287Z,11.17
2023-11-23T05:30:36.771Z,11.26
2023-11-23T05:33:05.823Z,11.34
2023-11-23T05:35:35.493Z,11.36
2023-11-23T05:38:03.472Z,11.43
2023-11-23T05:40:31.452Z,11.47
2023-11-23T05:43:05.389Z,11.57
2023-11-23T05:45:35.239Z,11.53
2023-11-23T05:48:03.718Z,11.56
2023-11-23T05:50:31.764Z,11.59
2023-11-23T05:53:01.110Z,11.64
2023-11-23T05:55:29.109Z,11.74
2023-11-23T05:57:57.048Z,11.68
2023-11-23T06:00:26.104Z,11.86
2023-11-23T06:02:54.359Z,11.95
2023-11-23T06:05:22.557Z,11.98
2023-11-23T06:07:50.544Z,11.95
2023-11-23T06:10:20.157Z,11.92
2023-11-23T06:12:48.122Z,11.89
2023-11-23T06:15:16.269Z,12.00
2023-11-23T06:17:44.304Z,12.06
2023-11-23T06:20:15.384Z,12.07
2023-11-23T06:22:43.380Z,11.94
2023-11-23T06:25:13.753Z,11.98
2023-11-23T06:27:43.290Z,12.00
2023-11-23T06:30:12.553Z,11.91
2023-11-23T06:32:40.650Z,11.96
2023-11-23T06:35:12.114Z,12.02
2023-11-23T06:37:40.760Z,12.04
2023-11-23T06:40:10.036Z,11.99
2023-11-23T06:42:39.272Z,12.02
2023-11-23T06:45:10.634Z,11.97
2023-11-23T06:47:38.676Z,11.91
2023-11-23T06:50:07.849Z,11.92
2023-11-23T06:52:35.884Z,11.94
2023-11-23T06:55:04.131Z,11.94
2023-11-23T06:57:32.137Z,11.92
2023-11-23T07:00:00.398Z,11.98
2023-11-23T07:02:30.409Z,11.93
2023-11-23T07:04:58.579Z,11.96
2023-11-23T07:07:26.604Z,12.03
2023-11-23T07:09:54.667Z,12.01
2023-11-23T07:12:22.650Z,12.03
2023-11-23T07:14:51.292Z,12.09
2023-11-23T07:17:19.313Z,12.17
2023-11-23T07:19:48.652Z,12.14
2023-11-23T07:22:16.627Z,12.02
2023-11-23T07:24:44.562Z,12.14
2023-11-23T07:27:12.784Z,12.15
2023-11-23T07:29:40.856Z,12.23
2023-11-23T07:32:09.563Z,12.31
2023-11-23T07:34:38.465Z,12.31
2023-11-23T07:37:09.586Z,12.36
2023-11-23T07:39:38.972Z,12.30
2023-11-23T07:42:07.706Z,12.36
2023-11-23T07:44:35.820Z,12.39
2023-11-23T07:47:03.818Z,12.47
2023-11-23T07:49:31.752Z,12.38
2023-11-23T07:51:59.783Z,12.48
2023-11-23T07:54:29.287Z,12.55
2023-11-23T07:56:57.379Z,12.43
2023-11-23T07:59:25.459Z,12.48
2023-11-23T08:01:55.498Z,12.61
2023-11-23T08:04:25.361Z,12.55
2023-11-23T08:06:53.492Z,12.60
2023-11-23T08:09:21.573Z,12.63
2023-11-23T08:11:53.871Z,12.62
2023-11-23T08:14:22.533Z,12.67
2023-11-23T08:16:50.671Z,12.76
2023-11-23T08:19:19.420Z,12.76
2023-11-23T08:21:50.696Z,12.82
2023-11-23T08:24:18.918Z,12.68
2023-11-23T08:26:46.999Z,12.62
2023-11-23T08:29:17.166Z,12.73
2023-11-23T08:31:46.947Z,12.83
2023-11-23T08:34:15.533Z,12.86
2023-11-23T08:36:43.441Z,12.90
2023-11-23T08:39:20.452Z,12.89
2023-11-23T08:41:56.577Z,12.91
2023-11-23T08:44:39.926Z,12.87
2023-11-23T08:47:09.381Z,12.88
2023-11-23T08:49:49.621Z,12.93
2023-11-23T08:52:32.645Z,12.89
2023-11-23T08:55:01.274Z,12.83
2023-11-23T08:57:33.428Z,12.85
2023-11-23T09:00:04.294Z,12.81
2023-11-23T09:02:41.366Z,12.79
2023-11-23T09:05:10.929Z,12.76
2023-11-23T09:07:40.262Z,12.81
2023-11-23T09:10:11.137Z,12.88
2023-11-23T09:12:39.565Z,12.95
2023-11-23T09:15:32.591Z,12.94
2023-11-23T09:18:14.277Z,12.88
2023-11-23T09:20:42.906Z,12.88
2023-11-23T09:23:25.135Z,12.88
2023-11-23T09:25:55.132Z,12.95
2023-11-23T09:28:24.690Z,13.02
2023-11-23T09:30:57.463Z,12.93
2023-11-23T09:33:33.257Z,12.87
2023-11-23T09:36:14.515Z,12.87
2023-11-23T09:38:43.381Z,12.94
2023-11-23T09:41:21.148Z,12.95
2023-11-23T09:43:49.792Z,13.00
2023-11-23T09:46:20.684Z,13.07
2023-11-23T09:48:55.435Z,13.18
2023-11-23T09:51:29.703Z,13.19
2023-11-23T09:54:04.823Z,13.03
2023-11-23T09:56:33.325Z,13.08
2023-11-23T09:59:05.578Z,13.19
2023-11-23T10:01:49.177Z,13.26
2023-11-23T10:04:27.371Z,13.14
2023-11-23T10:06:56.123Z,13.16
2023-11-23T10:09:28.212Z,13.35
2023-11-23T10:11:57.888Z,13.32
2023-11-23T10:14:26.916Z,13.24
2023-11-23T10:16:58.113Z,13.27
2023-11-23T10:19:27.675Z,13.33
2023-11-23T10:22:01.046Z,13.40
2023-11-23T10:24:32.202Z,13.40
2023-11-23T10:27:03.957Z,13.38
2023-11-23T10:29:33.691Z,13.35
2023-11-23T10:32:09.066Z,13.26
2023-11-23T10:34:46.332Z,13.29
2023-11-23T10:37:17.795Z,13.32
2023-11-23T10:39:55.699Z,13.39
2023-11-23T10:42:27.252Z,13.39
2023-11-23T10:44:57.476Z,13.47
2023-11-23T10:47:31.181Z,13.48
2023-11-23T10:50:03.584Z,13.47
2023-11-23T10:52:34.042Z,13.51
2023-11-23T10:55:02.115Z,13.63
2023-11-23T10:57:31.758Z,13.65
2023-11-23T11:00:14.241Z,13.58
2023-11-23T11:02:44.925Z,13.71
2023-11-23T11:05:25.245Z,13.83
2023-11-23T11:08:01.225Z,13.72
2023-11-23T11:10:30.419Z,13.77
2023-11-23T11:13:17.313Z,13.83
2023-11-23T11:15:58.095Z,13.72
2023-11-23T11:18:28.579Z,13.68
2023-11-23T11:21:10.583Z,13.79
2023-11-23T11:23:40.077Z,13.68
2023-11-23T11:26:10.924Z,13.72
2023-11-23T11:28:39.933Z,13.67
2023-11-23T11:31:10.168Z,13.74
2023-11-23T11:33:39.991Z,13.88
2023-11-23T11:36:09.722Z,13.79
2023-11-23T11:38:38.500Z,13.74
2023-11-23T11:41:08.335Z,13.88
2023-11-23T11:43:36.346Z,13.90
2023-11-23T11:46:06.469Z,13.95
2023-11-23T11:48:34.585Z,13.84
2023-11-23T11:51:06.294Z,13.77
2023-11-23T11:53:34.573Z,13.75
2023-11-23T11:56:04.741Z,13.79
2023-11-23T11:58:32.712Z,13.69
2023-11-23T12:01:01.099Z,13.65
2023-11-23T12:03:29.227Z,13.60
2023-11-23T12:05:57.514Z,13.69
2023-11-23T12:08:36.225Z,13.63
2023-11-23T12:11:06.639Z,13.66
2023-11-23T12:13:36.650Z,13.62
2023-11-23T12:16:04.897Z,13.69
2023-11-23T12:18:36.471Z,13.68
2023-11-23T12:21:05.470Z,13.67
2023-11-23T12:23:42.160Z,13.73
2023-11-23T12:26:11.255Z,13.61
2023-11-23T12:28:40.118Z,13.61
2023-11-23T12:31:08.879Z,13.60
2023-11-23T12:33:40.349Z,13.67
2023-11-23T12:36:09.102Z,13.68
2023-11-23T12:38:41.623Z,13.53
2023-11-23T12:41:13.831Z,13.50
2023-11-23T12:43:46.416Z,13.50
2023-11-23T12:46:17.040Z,13.46
2023-11-23T12:48:48.419Z,13.57
2023-11-23T12:51:19.391Z,13.45
2023-11-23T12:53:48.892Z,13.44
2023-11-23T12:56:16.932Z,13.49
2023-11-23T12:58:45.076Z,13.37
2023-11-23T13:01:13.335Z,13.39
2023-11-23T13:03:41.601Z,13.32
2023-11-23T13:06:10.842Z,13.28
2023-11-23T13:08:39.312Z,13.38
2023-11-23T13:11:08.720Z,13.32
2023-11-23T13:13:36.644Z,13.30
2023-11-23T13:16:04.984Z,13.33
2023-11-23T13:18:51.077Z,13.18
2023-11-23T13:21:27.115Z,13.16
2023-11-23T13:23:55.293Z,13.18
2023-11-23T13:26:26.290Z,13.05
2023-11-23T13:28:58.404Z,13.02
2023-11-23T13:31:26.488Z,13.08
2023-11-23T13:33:54.502Z,13.08
2023-11-23T13:36:23.823Z,13.17
2023-11-23T13:38:52.501Z,13.18
2023-11-23T13:41:20.526Z,13.22
2023-11-23T13:43:49.968Z,13.18
2023-11-23T13:46:18.141Z,13.16
2023-11-23T13:48:47.380Z,13.25
2023-11-23T13:51:18.954Z,13.31
2023-11-23T13:53:47.058Z,13.26
2023-11-23T13:56:19.299Z,13.25
2023-11-23T13:58:47.283Z,13.23
2023-11-23T14:01:16.801Z,13.33
2023-11-23T14:03:45.221Z,13.32
2023-11-23T14:06:14.745Z,13.33
2023-11-23T14:08:42.716Z,13.30
2023-11-23T14:11:10.777Z,13.32
2023-11-23T14:13:38.926Z,13.22
2023-11-23T14:16:08.496Z,13.26
2023-11-23T14:18:40.822Z,13.28
2023-11-23T14:21:09.673Z,13.26
2023-11-23T14:23:37.800Z,13.29
2023-11-23T14:26:05.786Z,13.22
2023-11-23T14:28:33.823Z,13.19
2023-11-23T14:31:03.571Z,13.23
2023-11-23T14:33:32.921Z,13.20
2023-11-23T14:36:14.570Z,13.18
2023-11-23T14:38:44.090Z,13.25
2023-11-23T14:41:14.959Z,13.19
2023-11-23T14:43:43.255Z,13.25
2023-11-23T14:46:11.429Z,13.12
2023-11-23T14:48:39.496Z,13.09
2023-11-23T14:51:10.774Z,13.11
2023-11-23T14:53:40.175Z,13.14
2023-11-23T14:56:10.770Z,13.12
2023-11-23T14:58:39.958Z,13.17
2023-11-23T15:01:08.507Z,13.02
2023-11-23T15:03:38.728Z,13.00
2023-11-23T15:06:08.917Z,13.00
2023-11-23T15:08:37.007Z,12.99
2023-11-23T15:11:05.512Z,12.89
2023-11-23T15:13:38.717Z,12.88
2023-11-23T15:16:07.958Z,12.97
2023-11-23T15:18:36.538Z,13.08
2023-11-23T15:21:05.925Z,12.98
2023-11-23T15:23:36.058Z,13.04
2023-11-23T15:26:04.749Z,13.05
2023-11-23T15:28:33.064Z,12.98
2023-11-23T15:31:01.467Z,12.88
2023-11-23T15:33:31.821Z,12.97
2023-11-23T15:35:59.884Z,13.04
2023-11-23T15:38:28.133Z,13.00
2023-11-23T15:41:07.803Z,13.04
2023-11-23T15:43:36.116Z,13.06
2023-11-23T15:46:06.003Z,13.00
2023-11-23T15:48:34.315Z,12.95
2023-11-23T15:51:05.285Z,12.92
2023-11-23T15:53:33.373Z,12.90
2023-11-23T15:56:03.060Z,12.95
2023-11-23T15:58:32.236Z,13.07
2023-11-23T16:01:01.611Z,13.10
2023-11-23T16:03:30.332Z,13.01
2023-11-23T16:05:58.360Z,13.05
2023-11-23T16:08:26.304Z,13.03
2023-11-23T16:10:54.394Z,13.10
2023-11-23T16:13:23.763Z,13.16
2023-11-23T16:15:51.787Z,13.11
2023-11-23T16:18:19.975Z,13.00
2023-11-23T16:20:51.940Z,12.93
2023-11-23T16:23:20.225Z,13.03
2023-11-23T16:25:48.142Z,13.20
2023-11-23T16:28:16.054Z,13.17
2023-11-23T16:30:45.663Z,13.22
2023-11-23T16:33:13.795Z,13.15
2023-11-23T16:35:41.815Z,12.86
2023-11-23T16:38:10.346Z,12.47
2023-11-23T16:40:38.313Z,12.20
2023-11-23T16:43:06.554Z,12.18
2023-11-23T16:45:34.771Z,12.08
2023-11-23T16:48:04.314Z,12.07
2023-11-23T16:50:32.566Z,11.84
2023-11-23T16:53:00.618Z,11.76
2023-11-23T16:55:28.795Z,11.73
2023-11-23T16:57:56.973Z,11.67
2023-11-23T17:00:25.127Z,11.50
2023-11-23T17:02:53.168Z,11.38
2023-11-23T17:05:23.490Z,11.36
2023-11-23T17:07:51.565Z,11.33
2023-11-23T17:10:20.980Z,11.16
2023-11-23T17:12:49.345Z,11.03
2023-11-23T17:15:17.633Z,11.07
2023-11-23T17:17:46.954Z,10.99
2023-11-23T17:20:16.874Z,10.94
2023-11-23T17:22:48.997Z,10.55
2023-11-23T17:25:21.051Z,10.60
2023-11-23T17:27:49.273Z,10.56
2023-11-23T17:30:17.911Z,10.55
2023-11-23T17:32:46.002Z,10.52
2023-11-23T17:35:14.090Z,10.61
2023-11-23T17:37:42.059Z,10.57
2023-11-23T17:40:13.989Z,10.56
2023-11-23T17:42:43.114Z,10.66
2023-11-23T17:45:11.448Z,10.71
2023-11-23T17:47:39.580Z,10.60
2023-11-23T17:50:10.766Z,10.69
2023-11-23T17:52:42.929Z,10.66
2023-11-23T17:55:23.765Z,10.66
2023-11-23T17:57:51.903Z,10.68
2023-11-23T18:00:21.138Z,10.63
2023-11-23T18:02:49.303Z,10.71
2023-11-23T18:05:18.736Z,10.68
2023-11-23T18:07:50.164Z,10.75
2023-11-23T18:10:21.533Z,10.77
2023-11-23T18:12:52.780Z,10.77
2023-11-23T18:15:22.036Z,10.83
2023-11-23T18:17:51.906Z,10.79
2023-11-23T18:20:20.688Z,10.73
2023-11-23T18:22:55.193Z,10.69
2023-11-23T18:25:25.067Z,10.59
2023-11-23T18:27:53.335Z,10.54
2023-11-23T18:30:34.493Z,10.54
2023-11-23T18:33:07.197Z,10.51
2023-11-23T18:35:35.613Z,10.59
2023-11-23T18:38:06.909Z,10.51
2023-11-23T18:40:37.638Z,10.47
2023-11-23T18:43:05.709Z,10.51
2023-11-23T18:45:34.471Z,10.49
2023-11-23T18:48:06.178Z,10.55
2023-11-23T18:50:34.776Z,10.57
2023-11-23T18:53:02.929Z,10.60
2023-11-23T18:55:30.991Z,10.68
2023-11-23T18:58:00.522Z,10.62
2023-11-23T19:00:28.762Z,10.71
2023-11-23T19:02:59.622Z,10.58
2023-11-23T19:05:28.342Z,10.51
2023-11-23T19:07:56.431Z,10.38
2023-11-23T19:10:25.530Z,10.31
2023-11-23T19:13:03.330Z,10.22
2023-11-23T19:15:36.399Z,10.21
2023-11-23T19:18:05.565Z,10.20
2023-11-23T19:20:41.732Z,10.10
2023-11-23T19:23:10.655Z,10.12
2023-11-23T19:25:39.189Z,10.20
2023-11-23T19:28:08.268Z,10.17
2023-11-23T19:30:40.101Z,10.18
2023-11-23T19:33:16.481Z,10.03
2023-11-23T19:35:48.490Z,10.19
2023-11-23T19:38:17.081Z,10.30
2023-11-23T19:40:45.821Z,10.21
2023-11-23T19:43:16.502Z,10.10
2023-11-23T19:45:47.807Z,10.19
2023-11-23T19:48:16.991Z,10.21
2023-11-23T19:50:45.736Z,10.10
2023-11-23T19:53:17.929Z,10.16
2023-11-23T19:55:46.709Z,10.07
2023-11-23T19:58:15.721Z,10.08
2023-11-23T20:00:45.401Z,10.08
2023-11-23T20:03:13.985Z,10.10
2023-11-23T20:05:42.309Z,10.05
2023-11-23T20:08:13.703Z,10.16
2023-11-23T20:10:45.735Z,10.14
2023-11-23T20:13:24.917Z,10.01
2023-11-23T20:15:57.017Z,9.99
2023-11-23T20:18:26.095Z,10.03
2023-11-23T20:20:54.230Z,9.94
2023-11-23T20:23:22.370Z,9.91
2023-11-23T20:25:50.531Z,9.89
2023-11-23T20:28:18.716Z,9.89
2023-11-23T20:30:53.805Z,9.76
2023-11-23T20:33:23.503Z,9.65
2023-11-23T20:35:51.564Z,9.76
2023-11-23T20:38:22.460Z,9.72
2023-11-23T20:40:53.417Z,9.71
2023-11-23T20:43:25.441Z,9.73
2023-11-23T20:45:55.038Z,9.79
2023-11-23T20:48:24.433Z,9.67
2023-11-23T20:50:53.885Z,9.64
2023-11-23T20:53:29.644Z,9.75
2023-11-23T20:55:58.334Z,9.77
2023-11-23T20:58:26.916Z,9.76
2023-11-23T21:00:57.889Z,9.72
2023-11-23T21:03:29.795Z,9.74
2023-11-23T21:05:58.901Z,9.74
2023-11-23T21:08:27.305Z,9.87
2023-11-23T21:11:03.041Z,9.96
2023-11-23T21:13:31.588Z,9.95
2023-11-23T21:15:59.861Z,9.96
2023-11-23T21:18:29.580Z,10.02
2023-11-23T21:20:57.866Z,10.09
2023-11-23T21:23:26.736Z,10.03
2023-11-23T21:25:54.775Z,10.01
2023-11-23T21:28:23.045Z,10.05
2023-11-23T21:30:51.490Z,10.08
2023-11-23T21:33:20.027Z,10.06
2023-11-23T21:35:49.368Z,10.10
2023-11-23T21:38:17.398Z,10.14
2023-11-23T21:40:45.825Z,10.22
2023-11-23T21:43:13.944Z,10.19
2023-11-23T21:45:42.688Z,10.12
2023-11-23T21:48:10.845Z,10.12
2023-11-23T21:50:39.133Z,10.01
2023-11-23T21:53:08.792Z,9.95
2023-11-23T21:55:38.668Z,9.93
2023-11-23T21:58:06.855Z,9.98
2023-11-23T22:00:34.795Z,9.86
2023-11-23T22:03:03.814Z,9.71
2023-11-23T22:05:34.024Z,9.65
2023-11-23T22:08:02.038Z,9.64
2023-11-23T22:10:31.476Z,9.56
2023-11-23T22:12:59.529Z,9.62
2023-11-23T22:15:27.558Z,9.53
2023-11-23T22:17:57.760Z,9.46
2023-11-23T22:20:26.480Z,9.45
2023-11-23T22:22:55.996Z,9.47
2023-11-23T22:25:25.090Z,9.56
2023-11-23T22:27:55.351Z,9.52
2023-11-23T22:30:24.055Z,9.49
2023-11-23T22:32:58.099Z,9.42
2023-11-23T22:35:27.199Z,9.27
2023-11-23T22:37:55.652Z,9.30
2023-11-23T22:40:24.415Z,9.22
2023-11-23T22:42:54.622Z,9.23
2023-11-23T22:45:23.283Z,9.10
2023-11-23T22:47:53.961Z,9.09
2023-11-23T22:50:22.563Z,9.06
2023-11-23T22:52:50.573Z,9.02
2023-11-23T22:55:19.040Z,9.02
2023-11-23T22:57:47.941Z,9.02
2023-11-23T23:00:25.371Z,8.99
2023-11-23T23:02:54.097Z,9.02
2023-11-23T23:05:28.838Z,9.21
2023-11-23T23:07:57.717Z,9.31
2023-11-23T23:10:28.606Z,9.10
2023-11-23T23:12:58.424Z,8.78
2023-11-23T23:15:28.095Z,8.57
2023-11-23T23:17:57.202Z,8.60
2023-11-23T23:20:25.508Z,8.64
2023-11-23T23:22:57.278Z,8.52
2023-11-23T23:25:40.264Z,8.55
2023-11-23T23:28:18.193Z,8.54
2023-11-23T23:30:52.004Z,8.56
2023-11-23T23:33:20.283Z,8.52
2023-11-23T23:35:48.724Z,8.57
2023-11-23T23:38:16.791Z,8.57
2023-11-23T23:40:44.885Z,8.67
2023-11-23T23:43:15.709Z,8.66
2023-11-23T23:45:44.531Z,8.71
2023-11-23T23:48:14.274Z,8.77
2023-11-23T23:50:45.083Z,8.86
2023-11-23T23:53:14.474Z,8.87
2023-11-23T23:55:47.067Z,8.93
2023-11-23T23:58:18.321Z,8.93
